Observation data for Hereford on 04/23/2019      Previous  Date  Next       Current Mesonet Observations  Soil Data  Daily Summary Page  Observations in Plain Language
KHES 230500Z 02010KT 10/09 A301 RMK A01 T00970085  RH  094%=      5-min Rain = 0
KHES 230505Z 03010KT 10/08 A301 RMK A01 T00970084  RH  095%=      5-min Rain = 0
KHES 230510Z 03010KT 10/08 A301 RMK A01 T00960084  RH  095%=      5-min Rain = 0
KHES 230515Z 03010KT 10/09 A301 RMK A01 T00960085  RH  095%=      5-min Rain = 0
KHES 230520Z 03010KT 10/09 A301 RMK A01 T00970085  RH  095%=      5-min Rain = 0
KHES 230525Z 03009KT 10/09 A3011 RMK A01 T00970085  RH  095%=      5-min Rain = 0
KHES 230530Z 04009KT 10/09 A3011 RMK A01 T00970085  RH  095%=      5-min Rain = 0
KHES 230535Z 03009KT 10/09 A3011 RMK A01 T00970085  RH  095%=      5-min Rain = 0
KHES 230540Z 03008G14KT 10/09 A3011 RMK A01 T00970085  RH  095%=      5-min Rain = 0
KHES 230545Z 03010KT 10/09 A3011 RMK A01 T00970085  RH  095%=      5-min Rain = 0
KHES 230550Z 03011KT 10/09 A301 RMK A01 T00980085  RH  094%=      5-min Rain = 0
KHES 230555Z 03010KT 10/09 A3011 RMK A01 T00980085  RH  094%=      5-min Rain = 0
KHES 230600Z 04009KT 10/09 A3011 RMK A01 T00990085  RH  094%=      5-min Rain = 0
KHES 230605Z 04009KT 10/08 A3011 RMK A01 T00990084  RH  094%=      5-min Rain = 0
KHES 230610Z 04010KT 10/08 A3011 RMK A01 T00990084  RH  093%=      5-min Rain = 0
KHES 230615Z 04009KT 10/08 A3011 RMK A01 T00990084  RH  093%=      5-min Rain = 0
KHES 230620Z 04008KT 10/09 A3011 RMK A01 T00990085  RH  094%=      5-min Rain = 0
KHES 230625Z 04009G14KT 10/09 A301 RMK A01 T00990085  RH  094%=      5-min Rain = 0
KHES 230630Z 03010G15KT 10/09 A301 RMK A01 T00990085  RH  094%=      5-min Rain = 0
KHES 230635Z 04010KT 10/09 A301 RMK A01 T00990085  RH  093%=      5-min Rain = 0
KHES 230640Z 04009KT 10/09 A301 RMK A01 T01000085  RH  093%=      5-min Rain = 0
KHES 230645Z 04009KT 10/09 A301 RMK A01 T01000085  RH  093%=      5-min Rain = 0
KHES 230650Z 04010KT 10/09 A301 RMK A01 T01000085  RH  093%=      5-min Rain = 0
KHES 230655Z 03008KT 10/09 A301 RMK A01 T01000085  RH  093%=      5-min Rain = 0
KHES 230700Z 04008KT 10/09 A3011 RMK A01 T01000086  RH  094%=      5-min Rain = 0
KHES 230705Z 04008KT 10/09 A3011 RMK A01 T01000086  RH  094%=      5-min Rain = 0.01
KHES 230710Z 04006KT 10/09 A3011 RMK A01 T01000086  RH  094%=      5-min Rain = 0
KHES 230715Z 04006KT 10/09 A3011 RMK A01 T01010087  RH  094%=      5-min Rain = 0
KHES 230720Z 02005KT 10/09 A3011 RMK A01 T01000087  RH  094%=      5-min Rain = 0
KHES 230725Z 02007KT 10/09 A3011 RMK A01 T01000086  RH  094%=      5-min Rain = 0
KHES 230730Z 02009KT 10/09 A301 RMK A01 T01010086  RH  094%=      5-min Rain = 0
KHES 230735Z 02007KT 10/09 A301 RMK A01 T01000086  RH  094%=      5-min Rain = 0
KHES 230740Z 03007KT 10/09 A301 RMK A01 T01000087  RH  094%=      5-min Rain = 0
KHES 230745Z 03008KT 10/09 A301 RMK A01 T01000087  RH  094%=      5-min Rain = 0
KHES 230750Z 03008KT 10/09 A3009 RMK A01 T01000087  RH  094%=      5-min Rain = 0
KHES 230755Z 02009KT 10/09 A3008 RMK A01 T00990086  RH  095%=      5-min Rain = 0
KHES 230800Z 02010KT 10/09 A3008 RMK A01 T00990086  RH  095%=      5-min Rain = 0
KHES 230805Z 02010KT 10/09 A3008 RMK A01 T00980086  RH  095%=      5-min Rain = 0
KHES 230810Z 02009KT 10/09 A3008 RMK A01 T00980086  RH  095%=      5-min Rain = 0
KHES 230815Z 02011KT 10/09 A3007 RMK A01 T00980086  RH  095%=      5-min Rain = 0
KHES 230820Z 01010KT 10/09 A3007 RMK A01 T00970086  RH  095%=      5-min Rain = 0
KHES 230825Z 01010KT 10/09 A3008 RMK A01 T00970086  RH  095%=      5-min Rain = 0
KHES 230830Z 01010KT 10/09 A3008 RMK A01 T00970085  RH  095%=      5-min Rain = 0
KHES 230835Z 02010KT 10/09 A3008 RMK A01 T00970086  RH  095%=      5-min Rain = 0
KHES 230840Z 02009KT 10/09 A3008 RMK A01 T00970086  RH  095%=      5-min Rain = 0
KHES 230845Z 01010KT 10/09 A3008 RMK A01 T00980086  RH  095%=      5-min Rain = 0
KHES 230850Z 01009KT 10/09 A3008 RMK A01 T00980086  RH  095%=      5-min Rain = 0
KHES 230855Z 01009KT 10/09 A3009 RMK A01 T00980086  RH  095%=      5-min Rain = 0
KHES 230900Z 01009KT 10/09 A3009 RMK A01 T00980086  RH  095%=      5-min Rain = 0
KHES 230905Z 00008KT 10/09 A3009 RMK A01 T00990086  RH  095%=      5-min Rain = 0
KHES 230910Z 00008KT 10/09 A3009 RMK A01 T00980086  RH  095%=      5-min Rain = 0
KHES 230915Z 36007KT 10/09 A3009 RMK A01 T00990086  RH  094%=      5-min Rain = 0
KHES 230920Z 36007KT 10/09 A301 RMK A01 T00990086  RH  094%=      5-min Rain = 0
KHES 230925Z 36008KT 10/09 A301 RMK A01 T00990086  RH  094%=      5-min Rain = 0
KHES 230930Z 36007KT 10/09 A301 RMK A01 T00990086  RH  095%=      5-min Rain = 0.01
KHES 230935Z 35007KT 10/09 A301 RMK A01 T00990087  RH  095%=      5-min Rain = 0.01
KHES 230940Z 35008KT 10/09 A301 RMK A01 T00990087  RH  095%=      5-min Rain = 0.01
KHES 230945Z 35009KT 10/09 A301 RMK A01 T00990087  RH  095%=      5-min Rain = 0.01
KHES 230950Z 35007KT 10/09 A301 RMK A01 T01000088  RH  095%=      5-min Rain = 0.01
KHES 230955Z 35007KT 10/09 A301 RMK A01 T00990088  RH  096%=      5-min Rain = 0.02
KHES 231000Z 36007KT 10/09 A301 RMK A01 T00990088  RH  096%=      5-min Rain = 0.02
KHES 231005Z 36007KT 10/09 A301 RMK A01 T00990088  RH  096%=      5-min Rain = 0.01
KHES 231010Z 36007KT 10/09 A301 RMK A01 T00980089  RH  096%=      5-min Rain = 0.01
KHES 231015Z 36008KT 10/09 A301 RMK A01 T00980089  RH  097%=      5-min Rain = 0.01
KHES 231020Z 36008KT 10/09 A301 RMK A01 T00980089  RH  097%=      5-min Rain = 0
KHES 231025Z 36009KT 10/09 A301 RMK A01 T00980089  RH  097%=      5-min Rain = 0.01
KHES 231030Z 35008KT 10/09 A301 RMK A01 T00980089  RH  097%=      5-min Rain = 0
KHES 231035Z 35008KT 10/09 A301 RMK A01 T00980089  RH  097%=      5-min Rain = 0
KHES 231040Z 35009KT 10/09 A301 RMK A01 T00980089  RH  097%=      5-min Rain = 0.01
KHES 231045Z 35009KT 10/09 A301 RMK A01 T00980088  RH  097%=      5-min Rain = 0
KHES 231050Z 35009KT 10/09 A301 RMK A01 T00970088  RH  097%=      5-min Rain = 0
KHES 231055Z 35010KT 10/09 A301 RMK A01 T00970088  RH  097%=      5-min Rain = 0.01
KHES 231100Z 35009KT 10/09 A301 RMK A01 T00970088  RH  097%=      5-min Rain = 0.01
KHES 231105Z 35009KT 10/09 A301 RMK A01 T00970088  RH  097%=      5-min Rain = 0
KHES 231110Z 35009KT 10/09 A301 RMK A01 T00970088  RH  097%=      5-min Rain = 0.01
KHES 231115Z 35010KT 10/09 A301 RMK A01 T00970088  RH  097%=      5-min Rain = 0
KHES 231120Z 35010KT 10/09 A301 RMK A01 T00970087  RH  097%=      5-min Rain = 0
KHES 231125Z 35009KT 10/09 A301 RMK A01 T00970088  RH  097%=      5-min Rain = 0.01
KHES 231130Z 36009KT 10/09 A301 RMK A01 T00960088  RH  097%=      5-min Rain = 0
KHES 231135Z 36009KT 10/09 A301 RMK A01 T00960087  RH  097%=      5-min Rain = 0
KHES 231140Z 36010KT 10/09 A301 RMK A01 T00960087  RH  097%=      5-min Rain = 0.01
KHES 231145Z 00010KT 10/09 A301 RMK A01 T00950086  RH  097%=      5-min Rain = 0
KHES 231150Z 00011KT 10/09 A301 RMK A01 T00950086  RH  097%=      5-min Rain = 0
KHES 231155Z 00010KT 10/09 A3011 RMK A01 T00950086  RH  097%=      5-min Rain = 0
KHES 231200Z 00010KT 10/09 A3011 RMK A01 T00950086  RH  097%=      5-min Rain = 0
KHES 231205Z 01012KT 10/09 A3011 RMK A01 T00950086  RH  097%=      5-min Rain = 0.01
KHES 231210Z 01013KT 10/09 A3011 RMK A01 T00950086  RH  097%=      5-min Rain = 0
KHES 231215Z 01011KT 10/09 A3012 RMK A01 T00950085  RH  097%=      5-min Rain = 0
KHES 231220Z 00011KT 09/09 A3012 RMK A01 T00940085  RH  097%=      5-min Rain = 0
KHES 231225Z 01010KT 09/09 A3012 RMK A01 T00940086  RH  097%=      5-min Rain = 0
KHES 231230Z 01011KT 09/09 A3012 RMK A01 T00940085  RH  097%=      5-min Rain = 0
KHES 231235Z 01013KT 09/09 A3011 RMK A01 T00940085  RH  097%=      5-min Rain = 0
KHES 231240Z 02013G18KT 09/09 A3011 RMK A01 T00940085  RH  097%=      5-min Rain = 0
KHES 231245Z 01013KT 09/08 A3011 RMK A01 T00930084  RH  097%=      5-min Rain = 0
KHES 231250Z 01012G17KT 09/08 A3012 RMK A01 T00930084  RH  097%=      5-min Rain = 0
KHES 231255Z 02012KT 09/08 A3012 RMK A01 T00930084  RH  097%=      5-min Rain = 0.01
KHES 231300Z 02013KT 09/08 A3012 RMK A01 T00930084  RH  097%=      5-min Rain = 0
KHES 231305Z 03013KT 09/08 A3012 RMK A01 T00930084  RH  097%=      5-min Rain = 0
KHES 231310Z 03013G18KT 09/08 A3011 RMK A01 T00930084  RH  096%=      5-min Rain = 0
KHES 231315Z 03015KT 09/08 A3011 RMK A01 T00940084  RH  096%=      5-min Rain = 0
KHES 231320Z 03016G21KT 09/08 A301 RMK A01 T00940083  RH  096%=      5-min Rain = 0
KHES 231325Z 03013KT 10/08 A301 RMK A01 T00950084  RH  096%=      5-min Rain = 0
KHES 231330Z 03015G22KT 10/08 A3009 RMK A01 T00950084  RH  096%=      5-min Rain = 0
KHES 231335Z 03016G22KT 10/08 A3008 RMK A01 T00950084  RH  096%=      5-min Rain = 0
KHES 231340Z 02015G21KT 10/08 A3009 RMK A01 T00950084  RH  095%=      5-min Rain = 0
KHES 231345Z 02017KT 10/08 A3009 RMK A01 T00950084  RH  095%=      5-min Rain = 0
KHES 231350Z 02018G25KT 10/08 A3009 RMK A01 T00950083  RH  095%=      5-min Rain = 0
KHES 231355Z 02018G26KT 10/08 A3009 RMK A01 T00950083  RH  095%=      5-min Rain = 0
KHES 231400Z 02014G19KT 10/08 A3011 RMK A01 T00950083  RH  094%=      5-min Rain = 0
KHES 231405Z 02014KT 10/08 A3012 RMK A01 T00950082  RH  094%=      5-min Rain = 0
KHES 231410Z 02015KT 10/08 A3012 RMK A01 T00950082  RH  094%=      5-min Rain = 0
KHES 231415Z 02013G18KT 10/08 A3013 RMK A01 T00950082  RH  094%=      5-min Rain = 0
KHES 231420Z 02013G18KT 10/08 A3013 RMK A01 T00960084  RH  095%=      5-min Rain = 0
KHES 231425Z 02013KT 10/08 A3013 RMK A01 T00960083  RH  094%=      5-min Rain = 0
KHES 231430Z 03013G18KT 10/08 A3013 RMK A01 T00960083  RH  094%=      5-min Rain = 0
KHES 231435Z 03013G18KT 10/08 A3013 RMK A01 T00970084  RH  094%=      5-min Rain = 0
KHES 231440Z 03014KT 10/08 A3013 RMK A01 T00980084  RH  094%=      5-min Rain = 0
KHES 231445Z 03014KT 10/08 A3013 RMK A01 T00990083  RH  093%=      5-min Rain = 0
KHES 231450Z 03014G19KT 10/08 A3013 RMK A01 T00990084  RH  093%=      5-min Rain = 0
KHES 231455Z 03013KT 10/08 A3013 RMK A01 T01000084  RH  093%=      5-min Rain = 0
KHES 231500Z 03015KT 10/08 A3013 RMK A01 T01000084  RH  092%=      5-min Rain = 0
KHES 231505Z 04015G21KT 10/08 A3013 RMK A01 T01000083  RH  092%=      5-min Rain = 0
KHES 231510Z 04012G17KT 10/08 A3013 RMK A01 T01020084  RH  092%=      5-min Rain = 0
KHES 231515Z 04015G20KT 10/08 A3013 RMK A01 T01010084  RH  092%=      5-min Rain = 0
KHES 231520Z 04016KT 10/08 A3013 RMK A01 T01000083  RH  091%=      5-min Rain = 0
KHES 231525Z 04015G20KT 10/08 A3012 RMK A01 T00990083  RH  092%=      5-min Rain = 0
KHES 231530Z 04014G19KT 10/08 A3013 RMK A01 T00990084  RH  092%=      5-min Rain = 0
KHES 231535Z 04014G19KT 10/08 A3013 RMK A01 T01000084  RH  093%=      5-min Rain = 0
KHES 231540Z 04014KT 10/09 A3012 RMK A01 T01010085  RH  093%=      5-min Rain = 0
KHES 231545Z 04013G18KT 10/09 A3012 RMK A01 T01030087  RH  092%=      5-min Rain = 0
KHES 231550Z 05012KT 10/09 A3012 RMK A01 T01040088  RH  093%=      5-min Rain = 0
KHES 231555Z 04014KT 10/09 A3012 RMK A01 T01020087  RH  093%=      5-min Rain = 0
KHES 231600Z 04014G19KT 10/09 A3012 RMK A01 T01020087  RH  093%=      5-min Rain = 0
KHES 231605Z 04013G18KT 10/09 A3012 RMK A01 T01030089  RH  093%=      5-min Rain = 0
KHES 231610Z 05013KT 10/09 A3012 RMK A01 T01010087  RH  094%=      5-min Rain = 0
KHES 231615Z 04013KT 10/09 A3013 RMK A01 T01010088  RH  094%=      5-min Rain = 0
KHES 231620Z 04013G18KT 10/09 A3013 RMK A01 T01040087  RH  092%=      5-min Rain = 0
KHES 231625Z 05012G17KT 10/09 A3013 RMK A01 T01040086  RH  091%=      5-min Rain = 0
KHES 231630Z 04012G17KT 10/09 A3013 RMK A01 T01040086  RH  091%=      5-min Rain = 0
KHES 231635Z 04013G18KT 10/09 A3014 RMK A01 T01010085  RH  092%=      5-min Rain = 0
KHES 231640Z 04011KT 10/09 A3014 RMK A01 T01010085  RH  092%=      5-min Rain = 0
KHES 231645Z 04012G17KT 10/09 A3013 RMK A01 T01020085  RH  092%=      5-min Rain = 0
KHES 231650Z 04013KT 10/08 A3013 RMK A01 T01010084  RH  092%=      5-min Rain = 0
KHES 231655Z 04014KT 10/08 A3014 RMK A01 T01010083  RH  091%=      5-min Rain = 0
KHES 231700Z 04013KT 10/08 A3014 RMK A01 T01030084  RH  091%=      5-min Rain = 0
KHES 231705Z 04011KT 10/08 A3014 RMK A01 T01020083  RH  090%=      5-min Rain = 0
KHES 231710Z 04012KT 10/09 A3014 RMK A01 T01040085  RH  090%=      5-min Rain = 0
KHES 231715Z 04012G17KT 11/08 A3014 RMK A01 T01050084  RH  090%=      5-min Rain = 0
KHES 231720Z 04012KT 11/08 A3014 RMK A01 T01050084  RH  090%=      5-min Rain = 0
KHES 231725Z 03012KT 10/08 A3014 RMK A01 T01030083  RH  090%=      5-min Rain = 0
KHES 231730Z 05012KT 10/08 A3014 RMK A01 T01030084  RH  091%=      5-min Rain = 0
KHES 231735Z 04012KT 10/08 A3014 RMK A01 T01020083  RH  091%=      5-min Rain = 0
KHES 231740Z 04012KT 10/08 A3013 RMK A01 T01010083  RH  092%=      5-min Rain = 0
KHES 231745Z 04012KT 10/08 A3013 RMK A01 T01000083  RH  092%=      5-min Rain = 0
KHES 231750Z 04011KT 10/08 A3013 RMK A01 T01000083  RH  092%=      5-min Rain = 0
KHES 231755Z 04011KT 10/08 A3013 RMK A01 T01010084  RH  092%=      5-min Rain = 0
KHES 231800Z 04010KT 10/08 A3013 RMK A01 T01010084  RH  092%=      5-min Rain = 0
KHES 231805Z 05009KT 10/09 A3013 RMK A01 T01020085  RH  092%=      5-min Rain = 0
KHES 231810Z 05010KT 10/09 A3013 RMK A01 T01010086  RH  093%=      5-min Rain = 0
KHES 231815Z 04010KT 10/09 A3013 RMK A01 T01000085  RH  093%=      5-min Rain = 0
KHES 231820Z 04010G15KT 10/09 A3013 RMK A01 T01000086  RH  093%=      5-min Rain = 0
KHES 231825Z 05008KT 10/09 A3013 RMK A01 T01000086  RH  094%=      5-min Rain = 0
KHES 231830Z 04008KT 10/09 A3013 RMK A01 T00990087  RH  095%=      5-min Rain = 0
KHES 231835Z 04010KT 10/09 A3012 RMK A01 T00990088  RH  095%=      5-min Rain = 0
KHES 231840Z 05010KT 10/09 A3012 RMK A01 T00990088  RH  095%=      5-min Rain = 0
KHES 231845Z 04011KT 10/09 A3012 RMK A01 T00980088  RH  096%=      5-min Rain = 0
KHES 231850Z 04011KT 10/09 A3012 RMK A01 T00970086  RH  095%=      5-min Rain = 0
KHES 231855Z 04010KT 10/09 A3012 RMK A01 T00980086  RH  096%=      5-min Rain = 0
KHES 231900Z 03011KT 10/09 A3012 RMK A01 T00980087  RH  096%=      5-min Rain = 0
KHES 231905Z 03010KT 10/09 A3012 RMK A01 T00990088  RH  095%=      5-min Rain = 0
KHES 231910Z 02009KT 10/09 A3012 RMK A01 T01000088  RH  095%=      5-min Rain = 0
KHES 231915Z 03011KT 10/09 A3012 RMK A01 T01030087  RH  093%=      5-min Rain = 0
KHES 231920Z 04010KT 10/08 A3012 RMK A01 T01020083  RH  091%=      5-min Rain = 0
KHES 231925Z 04009G14KT 11/09 A3012 RMK A01 T01050087  RH  091%=      5-min Rain = 0
KHES 231930Z 03010KT 11/08 A3012 RMK A01 T01050084  RH  090%=      5-min Rain = 0
KHES 231935Z 04012KT 11/08 A3012 RMK A01 T01070083  RH  088%=      5-min Rain = 0
KHES 231940Z 03011KT 11/08 A3011 RMK A01 T01090083  RH  087%=      5-min Rain = 0
KHES 231945Z 03011KT 11/08 A3011 RMK A01 T01090084  RH  087%=      5-min Rain = 0
KHES 231950Z 03011KT 11/08 A3011 RMK A01 T01100084  RH  086%=      5-min Rain = 0
KHES 231955Z 03011KT 11/09 A3011 RMK A01 T01130086  RH  086%=      5-min Rain = 0
KHES 232000Z 03010KT 11/08 A3011 RMK A01 T01130084  RH  085%=      5-min Rain = 0
KHES 232005Z 03011KT 11/08 A3011 RMK A01 T01130083  RH  084%=      5-min Rain = 0
KHES 232010Z 03011KT 11/08 A3011 RMK A01 T01120079  RH  083%=      5-min Rain = 0
KHES 232015Z 03011KT 11/08 A3011 RMK A01 T01120081  RH  083%=      5-min Rain = 0
KHES 232020Z 02011KT 11/08 A3011 RMK A01 T01120081  RH  084%=      5-min Rain = 0
KHES 232025Z 02011KT 11/08 A3011 RMK A01 T01120083  RH  085%=      5-min Rain = 0
KHES 232030Z 02010KT 11/08 A3011 RMK A01 T01110083  RH  085%=      5-min Rain = 0
KHES 232035Z 01009KT 11/09 A3011 RMK A01 T01130085  RH  085%=      5-min Rain = 0
KHES 232040Z 03010KT 12/09 A301 RMK A01 T01170085  RH  083%=      5-min Rain = 0
KHES 232045Z 03009KT 12/08 A301 RMK A01 T01180084  RH  082%=      5-min Rain = 0
KHES 232050Z 04008KT 12/09 A301 RMK A01 T01190087  RH  083%=      5-min Rain = 0
KHES 232055Z 04009KT 12/09 A301 RMK A01 T01180087  RH  083%=      5-min Rain = 0
KHES 232100Z 02008KT 12/09 A301 RMK A01 T01190085  RH  082%=      5-min Rain = 0
KHES 232105Z 04008KT 12/09 A301 RMK A01 T01230087  RH  081%=      5-min Rain = 0
KHES 232110Z 03009KT 12/08 A3009 RMK A01 T01230084  RH  079%=      5-min Rain = 0
KHES 232115Z 02008KT 12/08 A3009 RMK A01 T01210083  RH  080%=      5-min Rain = 0
KHES 232120Z 02008KT 12/08 A3009 RMK A01 T01210081  RH  079%=      5-min Rain = 0
KHES 232125Z 04008KT 12/08 A3009 RMK A01 T01210082  RH  080%=      5-min Rain = 0
KHES 232130Z 04008KT 12/08 A3009 RMK A01 T01190080  RH  079%=      5-min Rain = 0
KHES 232135Z 01009KT 12/08 A3009 RMK A01 T01220082  RH  079%=      5-min Rain = 0
KHES 232140Z 01009KT 12/08 A3009 RMK A01 T01220080  RH  078%=      5-min Rain = 0
KHES 232145Z 01008KT 12/08 A3009 RMK A01 T01220081  RH  078%=      5-min Rain = 0
KHES 232150Z 02008KT 12/08 A3009 RMK A01 T01190078  RH  078%=      5-min Rain = 0
KHES 232155Z 03007KT 12/08 A3009 RMK A01 T01200077  RH  077%=      5-min Rain = 0
KHES 232200Z 02008KT 12/08 A3009 RMK A01 T01220079  RH  077%=      5-min Rain = 0
KHES 232205Z 01009KT 12/08 A3009 RMK A01 T01230079  RH  077%=      5-min Rain = 0
KHES 232210Z 01008KT 12/08 A3009 RMK A01 T01230080  RH  077%=      5-min Rain = 0
KHES 232215Z 01008KT 12/08 A3009 RMK A01 T01240078  RH  076%=      5-min Rain = 0
KHES 232220Z 02007KT 13/08 A3009 RMK A01 T01250081  RH  076%=      5-min Rain = 0
KHES 232225Z 03007KT 13/08 A3009 RMK A01 T01250077  RH  075%=      5-min Rain = 0
KHES 232230Z 02009KT 12/08 A3008 RMK A01 T01240076  RH  074%=      5-min Rain = 0
KHES 232235Z 01008KT 12/08 A3008 RMK A01 T01240077  RH  076%=      5-min Rain = 0
KHES 232240Z 02008KT 12/08 A3008 RMK A01 T01240077  RH  075%=      5-min Rain = 0
KHES 232245Z 02008KT 13/08 A3008 RMK A01 T01250076  RH  074%=      5-min Rain = 0
KHES 232250Z 04009KT 13/08 A3008 RMK A01 T01260076  RH  073%=      5-min Rain = 0
KHES 232255Z 04009KT 13/08 A3008 RMK A01 T01270075  RH  073%=      5-min Rain = 0
KHES 232300Z 04008KT 13/08 A3008 RMK A01 T01280075  RH  072%=      5-min Rain = 0
KHES 232305Z 03008KT 13/08 A3008 RMK A01 T01290076  RH  072%=      5-min Rain = 0
KHES 232310Z 04007KT 13/08 A3008 RMK A01 T01290076  RH  072%=      5-min Rain = 0
KHES 232315Z 04009KT 13/07 A3008 RMK A01 T01280073  RH  071%=      5-min Rain = 0
KHES 232320Z 03007KT 13/08 A3008 RMK A01 T01290075  RH  072%=      5-min Rain = 0
KHES 232325Z 03007KT 13/08 A3008 RMK A01 T01290075  RH  072%=      5-min Rain = 0
KHES 232330Z 04008KT 13/07 A3008 RMK A01 T01280073  RH  071%=      5-min Rain = 0
KHES 232335Z 05007KT 13/07 A3008 RMK A01 T01260073  RH  072%=      5-min Rain = 0
KHES 232340Z 04008KT 13/08 A3008 RMK A01 T01270075  RH  073%=      5-min Rain = 0
KHES 232345Z 04008KT 13/08 A3008 RMK A01 T01260075  RH  073%=      5-min Rain = 0
KHES 232350Z 04008KT 13/08 A3008 RMK A01 T01260076  RH  074%=      5-min Rain = 0
KHES 232355Z 04008KT 13/08 A3008 RMK A01 T01250075  RH  074%=      5-min Rain = 0
KHES 240000Z 04008KT 12/07 A3007 RMK A01 T01240073  RH  073%=      5-min Rain = 0
KHES 240005Z 04008KT 12/08 A3008 RMK A01 T01240075  RH  074%=      5-min Rain = 0
KHES 240010Z 03008KT 12/08 A3008 RMK A01 T01230076  RH  075%=      5-min Rain = 0
KHES 240015Z 04007KT 12/08 A3008 RMK A01 T01220076  RH  076%=      5-min Rain = 0
KHES 240020Z 03007KT 12/08 A3007 RMK A01 T01220076  RH  076%=      5-min Rain = 0
KHES 240025Z 04007KT 12/08 A3007 RMK A01 T01220077  RH  076%=      5-min Rain = 0
KHES 240030Z 04007KT 12/08 A3007 RMK A01 T01210075  RH  075%=      5-min Rain = 0
KHES 240035Z 03006KT 12/08 A3007 RMK A01 T01210076  RH  076%=      5-min Rain = 0
KHES 240040Z 04006KT 12/08 A3007 RMK A01 T01210076  RH  076%=      5-min Rain = 0
KHES 240045Z 04006KT 12/08 A3007 RMK A01 T01210076  RH  076%=      5-min Rain = 0
KHES 240050Z 04006KT 12/08 A3007 RMK A01 T01210076  RH  076%=      5-min Rain = 0
KHES 240055Z 04007KT 12/08 A3007 RMK A01 T01200075  RH  076%=      5-min Rain = 0
KHES 240100Z 04009KT 12/07 A3007 RMK A01 T01190071  RH  074%=      5-min Rain = 0
KHES 240105Z 04008KT 12/07 A3007 RMK A01 T01180071  RH  075%=      5-min Rain = 0
KHES 240110Z 03008KT 12/07 A3007 RMK A01 T01170070  RH  075%=      5-min Rain = 0
KHES 240115Z 04007KT 12/07 A3007 RMK A01 T01160070  RH  075%=      5-min Rain = 0
KHES 240120Z 04007KT 12/07 A3007 RMK A01 T01150069  RH  075%=      5-min Rain = 0
KHES 240125Z 04006KT 11/07 A3007 RMK A01 T01140067  RH  075%=      5-min Rain = 0
KHES 240130Z 04006KT 11/07 A3007 RMK A01 T01140066  RH  074%=      5-min Rain = 0
KHES 240135Z 05006KT 11/07 A3007 RMK A01 T01130066  RH  074%=      5-min Rain = 0
KHES 240140Z 04005KT 11/07 A3007 RMK A01 T01120067  RH  076%=      5-min Rain = 0
KHES 240145Z 04005KT 11/07 A3007 RMK A01 T01110069  RH  077%=      5-min Rain = 0
KHES 240150Z 04005KT 11/07 A3007 RMK A01 T01100069  RH  078%=      5-min Rain = 0
KHES 240155Z 05005KT 11/07 A3007 RMK A01 T01090069  RH  078%=      5-min Rain = 0
KHES 240200Z 05006KT 11/07 A3007 RMK A01 T01070068  RH  079%=      5-min Rain = 0
KHES 240205Z 04006KT 10/07 A3007 RMK A01 T01040066  RH  079%=      5-min Rain = 0
KHES 240210Z 05005KT 10/07 A3006 RMK A01 T01010065  RH  080%=      5-min Rain = 0
KHES 240215Z 06005KT 10/06 A3006 RMK A01 T00980063  RH  081%=      5-min Rain = 0
KHES 240220Z 05005KT 10/06 A3006 RMK A01 T00950062  RH  082%=      5-min Rain = 0
KHES 240225Z 06004KT 09/06 A3006 RMK A01 T00920062  RH  083%=      5-min Rain = 0
KHES 240230Z 06005KT 09/06 A3007 RMK A01 T00900061  RH  084%=      5-min Rain = 0
KHES 240235Z 05005KT 09/06 A3006 RMK A01 T00890061  RH  084%=      5-min Rain = 0
KHES 240240Z 05005KT 09/06 A3006 RMK A01 T00870061  RH  086%=      5-min Rain = 0
KHES 240245Z 05005KT 09/06 A3006 RMK A01 T00870060  RH  085%=      5-min Rain = 0
KHES 240250Z 04004KT 09/06 A3006 RMK A01 T00860058  RH  085%=      5-min Rain = 0
KHES 240255Z 04004KT 08/06 A3006 RMK A01 T00840057  RH  085%=      5-min Rain = 0
KHES 240300Z 04004KT 08/06 A3006 RMK A01 T00830056  RH  085%=      5-min Rain = 0
KHES 240305Z 05003KT 08/06 A3006 RMK A01 T00820057  RH  086%=      5-min Rain = 0
KHES 240310Z 05004KT 08/06 A3007 RMK A01 T00830057  RH  085%=      5-min Rain = 0
KHES 240315Z 04005KT 08/06 A3007 RMK A01 T00820056  RH  086%=      5-min Rain = 0
KHES 240320Z 05004KT 08/06 A3007 RMK A01 T00790055  RH  087%=      5-min Rain = 0
KHES 240325Z 05004KT 08/06 A3007 RMK A01 T00770055  RH  088%=      5-min Rain = 0
KHES 240330Z 04005KT 08/06 A3007 RMK A01 T00770055  RH  088%=      5-min Rain = 0
KHES 240335Z 04005KT 08/06 A3007 RMK A01 T00780055  RH  088%=      5-min Rain = 0
KHES 240340Z 03003KT 07/05 A3007 RMK A01 T00730053  RH  089%=      5-min Rain = 0
KHES 240345Z 03003KT 07/05 A3007 RMK A01 T00720054  RH  091%=      5-min Rain = 0
KHES 240350Z 02004KT 07/06 A3007 RMK A01 T00730055  RH  090%=      5-min Rain = 0
KHES 240355Z 01004KT 07/05 A3007 RMK A01 T00680050  RH  090%=      5-min Rain = 0
KHES 240400Z 35005KT 06/05 A3007 RMK A01 T00610047  RH  092%=      5-min Rain = 0
KHES 240405Z 36004KT 06/05 A3008 RMK A01 T00600049  RH  094%=      5-min Rain = 0
KHES 240410Z 00003KT 06/05 A3008 RMK A01 T00600049  RH  094%=      5-min Rain = 0
KHES 240415Z 00001KT 06/05 A3008 RMK A01 T00590047  RH  094%=      5-min Rain = 0
KHES 240420Z 36000KT 06/04 A3008 RMK A01 T00550044  RH  094%=      5-min Rain = 0
KHES 240425Z 00000KT 06/05 A3008 RMK A01 T00570048  RH  096%=      5-min Rain = 0
KHES 240430Z 11001KT 06/05 A3008 RMK A01 T00590050  RH  096%=      5-min Rain = 0
KHES 240435Z 07002KT 06/05 A3008 RMK A01 T00620052  RH  095%=      5-min Rain = 0
KHES 240440Z 02004KT 06/05 A3008 RMK A01 T00620050  RH  094%=      5-min Rain = 0
KHES 240445Z 35005KT 06/04 A3007 RMK A01 T00560042  RH  092%=      5-min Rain = 0
KHES 240450Z 34006KT 05/04 A3007 RMK A01 T00490037  RH  093%=      5-min Rain = 0
KHES 240455Z 34006KT 05/04 A3007 RMK A01 T00470037  RH  095%=      5-min Rain = 0

Page generated in 0.0251 seconds.